Terminal Aerodrome Forecast
Issued by NWS

Home | Current Version | Previous Version | Text Only | Print | Product List | Glossary On
Versions: 1 2 3 4 5 6 7 8 9 10 11 12 13 14
000
FTUS46 KMTR 031100
TAFSNS
TAF
KSNS 031120Z 0312/0412 28003KT P6SM OVC017
     FM031800 28005KT P6SM SCT017
     FM032000 29010KT P6SM SKC
     FM040300 28006KT P6SM OVC015=

USA.gov is the U.S. government's official web portal to all federal, state and local government web resources and services.